createdAt,value
2022-12-12T00:04:57.656Z,-1.82
2022-12-12T00:10:00.740Z,-1.80
2022-12-12T00:15:05.293Z,-1.80
2022-12-12T00:20:08.653Z,-1.83
2022-12-12T00:25:12.166Z,-1.83
2022-12-12T00:30:15.436Z,-1.86
2022-12-12T00:35:18.675Z,-1.89
2022-12-12T00:40:21.633Z,-1.89
2022-12-12T00:45:25.115Z,-1.92
2022-12-12T00:50:28.069Z,-1.96
2022-12-12T00:55:31.174Z,-2.03
2022-12-12T01:00:35.650Z,-2.13
2022-12-12T01:05:38.599Z,-2.22
2022-12-12T01:10:41.745Z,-2.23
2022-12-12T01:15:44.835Z,-2.28
2022-12-12T01:20:47.784Z,-2.30
2022-12-12T01:25:50.745Z,-2.35
2022-12-12T01:30:53.678Z,-2.36
2022-12-12T01:35:56.970Z,-2.39
2022-12-12T01:41:00.199Z,-2.40
2022-12-12T01:46:03.168Z,-2.39
2022-12-12T01:51:14.855Z,-2.43
2022-12-12T01:56:21.170Z,-2.45
2022-12-12T02:01:24.866Z,-2.49
2022-12-12T02:06:30.137Z,-2.52
2022-12-12T02:11:42.661Z,-2.60
2022-12-12T02:17:16.714Z,-2.66
2022-12-12T02:22:59.221Z,-2.72
2022-12-12T02:28:27.885Z,-2.78
2022-12-12T02:33:59.958Z,-2.89
2022-12-12T02:39:29.613Z,-2.96
2022-12-12T02:45:02.500Z,-2.99
2022-12-12T02:50:18.627Z,-3.00
2022-12-12T02:55:22.100Z,-2.99
2022-12-12T03:00:25.514Z,-2.98
2022-12-12T03:06:02.965Z,-3.02
2022-12-12T03:11:13.350Z,-2.99
2022-12-12T03:16:38.571Z,-3.03
2022-12-12T03:22:17.453Z,-3.02
2022-12-12T03:27:32.093Z,-3.04
2022-12-12T03:33:07.048Z,-3.08
2022-12-12T03:38:34.526Z,-3.10
2022-12-12T03:44:06.386Z,-3.11
2022-12-12T03:49:18.581Z,-3.13
2022-12-12T03:54:55.088Z,-3.13
2022-12-12T04:00:08.108Z,-3.17
2022-12-12T04:06:10.454Z,-3.19
2022-12-12T04:11:39.764Z,-3.22
2022-12-12T04:16:45.085Z,-3.30
2022-12-12T04:22:18.069Z,-3.32
2022-12-12T04:27:50.982Z,-3.37
2022-12-12T04:33:17.488Z,-3.40
2022-12-12T04:38:24.125Z,-3.45
2022-12-12T04:43:35.228Z,-3.48
2022-12-12T04:49:30.862Z,-3.55
2022-12-12T04:55:06.113Z,-3.65
2022-12-12T05:00:12.463Z,-3.72
2022-12-12T05:05:23.105Z,-3.76
2022-12-12T05:10:26.267Z,-3.80
2022-12-12T05:15:29.926Z,-3.83
2022-12-12T05:20:33.199Z,-3.80
2022-12-12T05:25:36.322Z,-3.83
2022-12-12T05:30:39.494Z,-3.85
2022-12-12T05:35:42.673Z,-3.92
2022-12-12T05:40:45.764Z,-3.99
2022-12-12T05:45:48.886Z,-4.03
2022-12-12T05:50:53.243Z,-4.09
2022-12-12T05:55:56.016Z,-4.14
2022-12-12T06:01:03.239Z,-4.20
2022-12-12T06:06:06.652Z,-4.25
2022-12-12T06:11:09.478Z,-4.31
2022-12-12T06:16:18.310Z,-4.32
2022-12-12T06:21:22.915Z,-4.37
2022-12-12T06:26:27.003Z,-4.42
2022-12-12T06:31:30.470Z,-4.51
2022-12-12T06:36:33.352Z,-4.45
2022-12-12T06:41:36.901Z,-4.45
2022-12-12T06:46:39.958Z,-4.51
2022-12-12T06:51:46.378Z,-4.48
2022-12-12T06:56:49.766Z,-4.29
2022-12-12T07:01:57.036Z,-4.17
2022-12-12T07:07:00.354Z,-4.06
2022-12-12T07:12:03.843Z,-4.07
2022-12-12T07:17:07.052Z,-3.99
2022-12-12T07:22:10.748Z,-3.93
2022-12-12T07:27:18.469Z,-3.77
2022-12-12T07:32:24.339Z,-3.47
2022-12-12T07:37:27.244Z,-3.11
2022-12-12T07:42:30.060Z,-2.77
2022-12-12T07:47:33.128Z,-2.46
2022-12-12T07:52:35.999Z,-2.17
2022-12-12T07:57:39.486Z,-1.78
2022-12-12T08:02:42.375Z,-1.53
2022-12-12T08:07:45.192Z,-1.48
2022-12-12T08:12:48.306Z,-1.43
2022-12-12T08:17:51.689Z,-1.42
2022-12-12T08:22:54.644Z,-1.36
2022-12-12T08:27:57.461Z,-1.33
2022-12-12T08:33:04.898Z,-1.38
2022-12-12T08:38:11.111Z,-1.31
2022-12-12T08:43:14.287Z,-1.24
2022-12-12T08:48:17.150Z,-1.43
2022-12-12T08:53:20.128Z,-1.75
2022-12-12T08:58:23.399Z,-1.98
2022-12-12T09:03:29.397Z,-2.11
2022-12-12T09:08:33.108Z,-1.84
2022-12-12T09:13:36.710Z,-1.49
2022-12-12T09:18:46.373Z,-1.39
2022-12-12T09:23:51.616Z,-1.48
2022-12-12T09:28:54.682Z,-1.69
2022-12-12T09:33:57.634Z,-1.71
2022-12-12T09:39:00.519Z,-1.73
2022-12-12T09:44:12.528Z,-1.77
2022-12-12T09:49:44.001Z,-1.73
2022-12-12T09:54:47.136Z,-1.73
2022-12-12T10:00:12.928Z,-1.70
2022-12-12T10:05:42.167Z,-1.69
2022-12-12T10:10:50.401Z,-1.75
2022-12-12T10:16:03.275Z,-1.85
2022-12-12T10:21:19.472Z,-1.89
2022-12-12T10:26:27.868Z,-1.95
2022-12-12T10:32:20.742Z,-2.04
2022-12-12T10:37:36.471Z,-2.02
2022-12-12T10:43:17.547Z,-2.05
2022-12-12T10:48:20.758Z,-2.04
2022-12-12T10:53:24.195Z,-1.93
2022-12-12T10:58:50.607Z,-1.91
2022-12-12T11:03:55.130Z,-1.89
2022-12-12T11:09:15.765Z,-1.85
2022-12-12T11:14:38.493Z,-1.92
2022-12-12T11:19:45.498Z,-1.96
2022-12-12T11:24:50.376Z,-1.99
2022-12-12T11:30:24.663Z,-2.11
2022-12-12T11:35:41.172Z,-2.14
2022-12-12T11:41:04.812Z,-2.00
2022-12-12T11:46:23.440Z,-1.88
2022-12-12T11:51:45.716Z,-1.77
2022-12-12T11:56:51.381Z,-1.75
2022-12-12T12:02:30.024Z,-1.69
2022-12-12T12:08:19.429Z,-1.89
2022-12-12T12:13:34.032Z,-2.05
2022-12-12T12:18:53.832Z,-2.15
2022-12-12T12:24:15.408Z,-2.18
2022-12-12T12:29:36.393Z,-2.20
2022-12-12T12:35:25.693Z,-2.23
2022-12-12T12:40:52.990Z,-2.25
2022-12-12T12:46:32.409Z,-2.29
2022-12-12T12:51:47.081Z,-2.38
2022-12-12T12:57:39.400Z,-2.45
2022-12-12T13:02:56.451Z,-2.55
2022-12-12T13:08:49.520Z,-2.65
2022-12-12T13:13:57.366Z,-2.71
2022-12-12T13:19:32.256Z,-2.85
2022-12-12T13:25:19.873Z,-2.92
2022-12-12T13:30:36.388Z,-3.02
2022-12-12T13:35:49.049Z,-3.01
2022-12-12T13:41:06.529Z,-3.07
2022-12-12T13:46:27.561Z,-3.03
2022-12-12T13:51:31.978Z,-3.03
2022-12-12T13:56:55.277Z,-3.02
2022-12-12T14:02:03.542Z,-3.02
2022-12-12T14:07:17.765Z,-3.05
2022-12-12T14:12:33.508Z,-2.99
2022-12-12T14:17:42.684Z,-3.01
2022-12-12T14:22:46.141Z,-2.99
2022-12-12T14:27:50.204Z,-3.04
2022-12-12T14:33:17.868Z,-3.04
2022-12-12T14:38:41.840Z,-3.07
2022-12-12T14:44:34.995Z,-3.09
2022-12-12T14:49:20.164Z,-3.08
2022-12-12T14:54:25.037Z,-3.08
2022-12-12T14:59:37.783Z,-3.14
2022-12-12T15:04:44.247Z,-3.11
2022-12-12T15:09:49.771Z,-3.15
2022-12-12T15:14:56.991Z,-3.12
2022-12-12T15:20:15.867Z,-3.13
2022-12-12T15:25:23.626Z,-3.13
2022-12-12T15:30:42.286Z,-3.13
2022-12-12T15:36:02.299Z,-3.14
2022-12-12T15:41:13.269Z,-3.12
2022-12-12T15:46:17.090Z,-3.13
2022-12-12T15:51:24.964Z,-3.13
2022-12-12T15:56:29.334Z,-3.08
2022-12-12T16:01:32.487Z,-3.06
2022-12-12T16:06:46.079Z,-3.00
2022-12-12T16:12:01.139Z,-2.99
2022-12-12T16:17:19.483Z,-3.00
2022-12-12T16:22:51.767Z,-3.02
2022-12-12T16:28:23.189Z,-3.00
2022-12-12T16:33:37.678Z,-3.01
2022-12-12T16:38:42.187Z,-3.00
2022-12-12T16:43:45.151Z,-3.04
2022-12-12T16:48:48.809Z,-3.06
2022-12-12T16:53:51.656Z,-3.10
2022-12-12T16:58:56.165Z,-3.15
2022-12-12T17:03:59.477Z,-3.16
2022-12-12T17:09:02.422Z,-3.22
2022-12-12T17:14:05.597Z,-3.28
2022-12-12T17:19:08.511Z,-3.30
2022-12-12T17:24:11.691Z,-3.35
2022-12-12T17:29:14.582Z,-3.41
2022-12-12T17:34:17.515Z,-3.43
2022-12-12T17:39:20.360Z,-3.45
2022-12-12T17:44:23.928Z,-3.45
2022-12-12T17:49:26.926Z,-3.52
2022-12-12T17:54:30.078Z,-3.52
2022-12-12T17:59:33.136Z,-3.52
2022-12-12T18:04:38.093Z,-3.50
2022-12-12T18:09:41.300Z,-3.45
2022-12-12T18:14:44.121Z,-3.40
2022-12-12T18:19:47.270Z,-3.42
2022-12-12T18:24:50.376Z,-3.39
2022-12-12T18:29:53.593Z,-3.42
2022-12-12T18:34:56.472Z,-3.44
2022-12-12T18:39:59.662Z,-3.46
2022-12-12T18:45:02.643Z,-3.42
2022-12-12T18:50:06.143Z,-3.38
2022-12-12T18:55:09.286Z,-3.33
2022-12-12T19:00:13.540Z,-3.29
2022-12-12T19:05:17.052Z,-3.20
2022-12-12T19:10:20.074Z,-3.10
2022-12-12T19:15:23.040Z,-3.04
2022-12-12T19:20:25.970Z,-2.95
2022-12-12T19:25:28.722Z,-2.90
2022-12-12T19:30:33.008Z,-2.82
2022-12-12T19:35:37.812Z,-2.80
2022-12-12T19:40:40.711Z,-2.75
2022-12-12T19:45:43.797Z,-2.74
2022-12-12T19:50:46.770Z,-2.70
2022-12-12T19:55:49.533Z,-2.67
2022-12-12T20:00:52.448Z,-2.68
2022-12-12T20:06:13.102Z,-2.67
2022-12-12T20:11:22.175Z,-2.64
2022-12-12T20:16:27.636Z,-2.63
2022-12-12T20:21:59.718Z,-2.67
2022-12-12T20:26:57.479Z,-2.68
2022-12-12T20:32:01.706Z,-2.70
2022-12-12T20:37:04.918Z,-2.75
2022-12-12T20:42:08.034Z,-2.78
2022-12-12T20:47:14.328Z,-2.82
2022-12-12T20:52:17.318Z,-2.90
2022-12-12T20:57:20.231Z,-2.93
2022-12-12T21:02:28.657Z,-2.94
2022-12-12T21:07:32.999Z,-3.00
2022-12-12T21:12:35.864Z,-3.03
2022-12-12T21:17:38.819Z,-3.04
2022-12-12T21:22:41.798Z,-3.06
2022-12-12T21:27:44.705Z,-3.02
2022-12-12T21:32:47.713Z,-3.03
2022-12-12T21:37:50.623Z,-3.07
2022-12-12T21:42:53.569Z,-3.08
2022-12-12T21:47:56.416Z,-3.09
2022-12-12T21:53:17.926Z,-3.07
2022-12-12T21:58:20.808Z,-3.09
2022-12-12T22:03:23.663Z,-3.10
2022-12-12T22:08:27.507Z,-3.11
2022-12-12T22:13:34.167Z,-3.16
2022-12-12T22:18:41.554Z,-3.17
2022-12-12T22:23:47.748Z,-3.19
2022-12-12T22:28:53.414Z,-3.24
2022-12-12T22:34:02.268Z,-3.28
2022-12-12T22:39:07.663Z,-3.28
2022-12-12T22:44:15.899Z,-3.29
2022-12-12T22:49:22.653Z,-3.32
2022-12-12T22:54:27.102Z,-3.35
2022-12-12T22:59:29.980Z,-3.39
2022-12-12T23:04:33.040Z,-3.42
2022-12-12T23:09:36.087Z,-3.47
2022-12-12T23:14:39.013Z,-3.47
2022-12-12T23:19:41.904Z,-3.54
2022-12-12T23:24:45.005Z,-3.64
2022-12-12T23:29:48.224Z,-3.64
2022-12-12T23:34:51.133Z,-3.62
2022-12-12T23:39:54.229Z,-3.62
2022-12-12T23:44:57.172Z,-3.56
2022-12-12T23:50:00.050Z,-3.57
2022-12-12T23:55:03.074Z,-3.58
